createdAt,value
2022-12-18T00:01:32.418Z,83.12
2022-12-18T00:03:59.336Z,83.31
2022-12-18T00:06:28.163Z,83.96
2022-12-18T00:08:57.402Z,83.41
2022-12-18T00:11:27.288Z,83.76
2022-12-18T00:13:55.351Z,84.00
2022-12-18T00:16:23.889Z,83.55
2022-12-18T00:18:52.950Z,83.56
2022-12-18T00:21:20.760Z,82.71
2022-12-18T00:23:48.743Z,82.55
2022-12-18T00:26:21.146Z,83.37
2022-12-18T00:28:50.602Z,82.55
2022-12-18T00:31:20.347Z,83.10
2022-12-18T00:33:47.569Z,83.46
2022-12-18T00:36:22.330Z,83.16
2022-12-18T00:38:49.909Z,83.00
2022-12-18T00:41:38.883Z,83.28
2022-12-18T00:44:07.117Z,84.13
2022-12-18T00:46:34.108Z,83.88
2022-12-18T00:49:00.907Z,83.33
2022-12-18T00:51:27.850Z,83.58
2022-12-18T00:53:54.998Z,83.44
2022-12-18T00:56:21.736Z,83.16
2022-12-18T00:58:48.376Z,83.79
2022-12-18T01:01:15.279Z,83.65
2022-12-18T01:03:42.343Z,83.30
2022-12-18T01:06:12.660Z,83.13
2022-12-18T01:08:39.851Z,83.51
2022-12-18T01:11:16.578Z,84.40
2022-12-18T01:13:43.745Z,83.03
2022-12-18T01:16:16.758Z,82.97
2022-12-18T01:18:43.573Z,83.44
2022-12-18T01:21:13.389Z,83.38
2022-12-18T01:23:40.667Z,83.65
2022-12-18T01:26:10.111Z,82.97
2022-12-18T01:28:37.579Z,82.30
2022-12-18T01:31:11.630Z,83.66
2022-12-18T01:33:38.671Z,84.23
2022-12-18T01:36:07.002Z,83.22
2022-12-18T01:38:33.647Z,84.41
2022-12-18T01:41:01.443Z,84.21
2022-12-18T01:43:57.959Z,83.87
2022-12-18T01:46:25.165Z,84.55
2022-12-18T01:48:56.504Z,84.03
2022-12-18T01:51:25.162Z,84.71
2022-12-18T01:53:51.841Z,84.12
2022-12-18T01:56:20.729Z,84.66
2022-12-18T01:59:04.934Z,85.15
2022-12-18T02:01:33.697Z,85.19
2022-12-18T02:04:23.064Z,85.30
2022-12-18T02:07:00.619Z,84.54
2022-12-18T02:09:45.562Z,83.77
2022-12-18T02:12:35.126Z,83.86
2022-12-18T02:15:35.097Z,83.77
2022-12-18T02:18:12.383Z,84.26
2022-12-18T02:20:49.560Z,84.38
2022-12-18T02:23:34.753Z,84.71
2022-12-18T02:26:19.827Z,84.24
2022-12-18T02:28:55.378Z,84.80
2022-12-18T02:31:29.231Z,84.48
2022-12-18T02:33:59.993Z,83.90
2022-12-18T02:36:30.076Z,84.59
2022-12-18T02:38:59.905Z,84.12
2022-12-18T02:41:27.282Z,84.50
2022-12-18T02:43:58.803Z,84.18
2022-12-18T02:46:31.170Z,84.57
2022-12-18T02:49:29.842Z,83.90
2022-12-18T02:52:13.043Z,84.86
2022-12-18T02:54:51.982Z,84.71
2022-12-18T02:57:35.814Z,84.23
2022-12-18T03:00:19.943Z,83.63
2022-12-18T03:02:58.547Z,83.82
2022-12-18T03:05:45.061Z,84.15
2022-12-18T03:08:18.987Z,84.39
2022-12-18T03:11:02.903Z,84.97
2022-12-18T03:13:40.279Z,84.75
2022-12-18T03:16:11.064Z,83.83
2022-12-18T03:19:07.643Z,84.79
2022-12-18T03:21:43.031Z,84.51
2022-12-18T03:24:11.127Z,85.12
2022-12-18T03:26:42.256Z,85.24
2022-12-18T03:29:16.447Z,84.50
2022-12-18T03:31:46.439Z,84.53
2022-12-18T03:34:22.952Z,84.69
2022-12-18T03:36:50.030Z,84.93
2022-12-18T03:39:16.738Z,84.71
2022-12-18T03:42:05.232Z,84.18
2022-12-18T03:44:54.483Z,84.56
2022-12-18T03:47:35.863Z,84.55
2022-12-18T03:50:26.547Z,84.58
2022-12-18T03:53:16.970Z,85.46
2022-12-18T03:55:46.863Z,84.94
2022-12-18T03:58:19.524Z,84.75
2022-12-18T04:01:00.658Z,85.09
2022-12-18T04:03:29.728Z,85.28
2022-12-18T04:06:00.334Z,84.42
2022-12-18T04:08:29.185Z,85.39
2022-12-18T04:11:05.600Z,85.39
2022-12-18T04:13:37.453Z,85.42
2022-12-18T04:16:08.408Z,84.96
2022-12-18T04:18:35.276Z,84.77
2022-12-18T04:21:03.478Z,84.57
2022-12-18T04:23:30.408Z,84.22
2022-12-18T04:25:59.242Z,84.86
2022-12-18T04:28:44.419Z,84.63
2022-12-18T04:31:12.417Z,84.82
2022-12-18T04:33:40.136Z,85.32
2022-12-18T04:36:07.807Z,84.79
2022-12-18T04:38:35.080Z,84.49
2022-12-18T04:41:09.182Z,84.44
2022-12-18T04:43:36.714Z,83.79
2022-12-18T04:46:07.445Z,83.63
2022-12-18T04:48:34.464Z,83.02
2022-12-18T04:51:02.943Z,82.54
2022-12-18T04:53:29.639Z,81.05
2022-12-18T04:56:06.352Z,80.78
2022-12-18T04:58:33.100Z,79.95
2022-12-18T05:00:59.828Z,79.87
2022-12-18T05:03:26.625Z,79.34
2022-12-18T05:05:53.396Z,80.68
2022-12-18T05:08:20.146Z,81.06
2022-12-18T05:10:46.868Z,81.44
2022-12-18T05:13:13.497Z,80.98
2022-12-18T05:15:40.232Z,81.79
2022-12-18T05:18:07.004Z,81.60
2022-12-18T05:20:33.658Z,82.17
2022-12-18T05:23:00.298Z,81.33
2022-12-18T05:25:27.720Z,81.58
2022-12-18T05:27:55.131Z,81.58
2022-12-18T05:30:21.750Z,81.41
2022-12-18T05:32:48.355Z,80.99
2022-12-18T05:35:14.920Z,80.25
2022-12-18T05:37:43.446Z,80.43
2022-12-18T05:40:11.203Z,80.72
2022-12-18T05:42:38.255Z,80.16
2022-12-18T05:45:05.943Z,80.88
2022-12-18T05:47:32.651Z,81.44
2022-12-18T05:49:59.290Z,80.65
2022-12-18T05:52:25.929Z,81.10
2022-12-18T05:54:52.606Z,80.95
2022-12-18T05:57:19.315Z,80.70
2022-12-18T05:59:45.915Z,79.81
2022-12-18T06:02:12.678Z,80.71
2022-12-18T06:04:39.363Z,80.55
2022-12-18T06:07:06.153Z,81.11
2022-12-18T06:09:33.358Z,80.56
2022-12-18T06:12:00.111Z,81.26
2022-12-18T06:14:26.823Z,80.82
2022-12-18T06:16:53.532Z,80.70
2022-12-18T06:19:20.093Z,80.48
2022-12-18T06:21:47.749Z,80.81
2022-12-18T06:24:14.366Z,81.25
2022-12-18T06:26:41.084Z,81.02
2022-12-18T06:29:07.843Z,81.17
2022-12-18T06:31:34.668Z,81.87
2022-12-18T06:34:03.765Z,81.26
2022-12-18T06:36:30.644Z,81.73
2022-12-18T06:38:57.901Z,82.01
2022-12-18T06:41:24.821Z,82.35
2022-12-18T06:43:52.855Z,82.37
2022-12-18T06:46:22.475Z,82.27
2022-12-18T06:48:50.841Z,83.35
2022-12-18T06:51:19.849Z,83.02
2022-12-18T06:53:46.570Z,83.21
2022-12-18T06:56:13.296Z,83.14
2022-12-18T06:58:40.350Z,82.97
2022-12-18T07:01:10.269Z,83.03
2022-12-18T07:03:38.559Z,83.90
2022-12-18T07:06:05.670Z,83.89
2022-12-18T07:08:33.539Z,84.27
2022-12-18T07:11:00.441Z,84.61
2022-12-18T07:13:27.727Z,83.92
2022-12-18T07:15:54.501Z,84.26
2022-12-18T07:18:21.212Z,84.55
2022-12-18T07:20:47.824Z,84.96
2022-12-18T07:23:15.611Z,84.18
2022-12-18T07:25:42.323Z,84.85
2022-12-18T07:28:14.157Z,85.55
2022-12-18T07:30:44.086Z,84.66
2022-12-18T07:33:10.730Z,84.59
2022-12-18T07:35:40.518Z,84.97
2022-12-18T07:38:07.399Z,85.36
2022-12-18T07:40:34.018Z,85.61
2022-12-18T07:43:00.647Z,84.84
2022-12-18T07:45:27.332Z,84.46
2022-12-18T07:47:56.986Z,84.30
2022-12-18T07:50:24.942Z,84.05
2022-12-18T07:52:51.566Z,83.89
2022-12-18T07:55:18.075Z,82.66
2022-12-18T07:57:54.311Z,82.30
2022-12-18T08:00:24.411Z,81.56
2022-12-18T08:02:51.237Z,81.71
2022-12-18T08:05:18.351Z,80.72
2022-12-18T08:07:45.098Z,79.81
2022-12-18T08:10:11.807Z,79.86
2022-12-18T08:12:38.549Z,79.60
2022-12-18T08:15:05.728Z,80.70
2022-12-18T08:17:32.966Z,80.17
2022-12-18T08:19:59.718Z,80.34
2022-12-18T08:22:26.798Z,80.74
2022-12-18T08:24:53.446Z,80.36
2022-12-18T08:27:29.406Z,80.66
2022-12-18T08:29:57.818Z,80.25
2022-12-18T08:32:25.757Z,78.70
2022-12-18T08:34:52.500Z,78.78
2022-12-18T08:37:19.530Z,79.29
2022-12-18T08:39:46.370Z,78.66
2022-12-18T08:42:31.200Z,78.78
2022-12-18T08:44:57.862Z,78.16
2022-12-18T08:47:24.472Z,77.92
2022-12-18T08:49:51.085Z,77.59
2022-12-18T08:52:17.734Z,77.50
2022-12-18T08:54:44.440Z,77.46
2022-12-18T08:57:11.073Z,77.97
2022-12-18T08:59:37.807Z,78.31
2022-12-18T09:02:04.625Z,78.47
2022-12-18T09:04:31.445Z,78.27
2022-12-18T09:06:58.069Z,79.19
2022-12-18T09:09:24.745Z,79.05
2022-12-18T09:11:51.314Z,77.52
2022-12-18T09:14:18.026Z,76.13
2022-12-18T09:16:44.852Z,77.04
2022-12-18T09:19:11.977Z,75.46
2022-12-18T09:21:42.119Z,75.59
2022-12-18T09:24:14.740Z,74.62
2022-12-18T09:26:41.551Z,74.70
2022-12-18T09:29:10.125Z,74.25
2022-12-18T09:31:37.770Z,74.56
2022-12-18T09:34:07.692Z,73.31
2022-12-18T09:36:34.590Z,73.33
2022-12-18T09:39:06.308Z,74.30
2022-12-18T09:41:56.911Z,74.76
2022-12-18T09:44:31.494Z,74.47
2022-12-18T09:47:13.653Z,74.50
2022-12-18T09:49:46.150Z,73.92
2022-12-18T09:52:16.751Z,73.62
2022-12-18T09:54:49.134Z,74.42
2022-12-18T09:57:24.276Z,73.63
2022-12-18T10:00:17.403Z,74.04
2022-12-18T10:02:44.285Z,73.27
2022-12-18T10:05:17.973Z,73.32
2022-12-18T10:08:03.542Z,73.66
2022-12-18T10:10:47.502Z,74.36
2022-12-18T10:13:44.811Z,75.02
2022-12-18T10:16:20.590Z,75.68
2022-12-18T10:19:09.993Z,75.31
2022-12-18T10:21:43.281Z,76.44
2022-12-18T10:24:34.931Z,76.35
2022-12-18T10:27:16.026Z,75.96
2022-12-18T10:29:44.794Z,75.99
2022-12-18T10:32:29.680Z,75.42
2022-12-18T10:35:00.720Z,74.45
2022-12-18T10:37:30.618Z,74.78
2022-12-18T10:40:18.452Z,74.90
2022-12-18T10:43:05.387Z,73.63
2022-12-18T10:45:34.011Z,73.29
2022-12-18T10:48:01.468Z,72.60
2022-12-18T10:51:01.679Z,70.10
2022-12-18T10:53:24.824Z,69.39
2022-12-18T10:55:55.844Z,69.32
2022-12-18T10:58:32.509Z,67.77
2022-12-18T11:01:17.225Z,70.05
2022-12-18T11:04:01.666Z,70.24
2022-12-18T11:06:29.543Z,70.56
2022-12-18T11:09:20.996Z,69.51
2022-12-18T11:11:57.032Z,69.82
2022-12-18T11:14:27.325Z,69.31
2022-12-18T11:17:25.386Z,68.56
2022-12-18T11:19:43.358Z,68.35
2022-12-18T11:22:22.433Z,67.07
2022-12-18T11:28:26.080Z,65.73
2022-12-18T11:31:23.825Z,63.48
2022-12-18T11:34:34.402Z,61.94
2022-12-18T11:36:54.326Z,61.61
2022-12-18T11:39:31.441Z,62.55
2022-12-18T11:42:14.393Z,61.73
2022-12-18T11:44:49.633Z,60.10
2022-12-18T11:47:34.520Z,60.09
2022-12-18T11:50:03.707Z,60.28
2022-12-18T11:52:39.373Z,61.78
2022-12-18T11:55:13.578Z,62.17
2022-12-18T11:57:54.296Z,62.56
2022-12-18T12:00:22.912Z,62.37
2022-12-18T12:03:44.544Z,62.78
2022-12-18T12:06:32.814Z,60.42
2022-12-18T12:09:25.238Z,60.68
2022-12-18T12:12:03.982Z,60.59
2022-12-18T12:14:43.156Z,56.44
2022-12-18T12:17:15.925Z,57.90
2022-12-18T12:20:04.427Z,57.43
2022-12-18T12:22:52.727Z,57.96
2022-12-18T12:25:41.609Z,58.82
2022-12-18T12:28:34.949Z,58.37
2022-12-18T12:31:16.833Z,58.93
2022-12-18T12:34:00.775Z,57.93
2022-12-18T12:36:46.065Z,58.62
2022-12-18T12:39:18.777Z,58.73
2022-12-18T12:42:06.126Z,57.90
2022-12-18T12:44:55.636Z,58.13
2022-12-18T12:47:34.626Z,57.47
2022-12-18T12:50:07.942Z,56.39
2022-12-18T12:52:38.935Z,57.46
2022-12-18T12:55:19.726Z,58.08
2022-12-18T12:58:14.571Z,58.19
2022-12-18T13:00:50.297Z,58.22
2022-12-18T13:03:36.307Z,58.58
2022-12-18T13:06:31.417Z,58.92
2022-12-18T13:09:01.227Z,59.80
2022-12-18T13:11:59.730Z,57.40
2022-12-18T13:14:38.252Z,58.70
2022-12-18T13:17:20.834Z,59.44
2022-12-18T13:20:07.986Z,60.36
2022-12-18T13:22:37.417Z,61.28
2022-12-18T13:25:32.030Z,59.56
2022-12-18T13:28:03.824Z,60.30
2022-12-18T13:30:33.259Z,61.22
2022-12-18T13:33:14.909Z,60.49
2022-12-18T13:35:54.648Z,60.76
2022-12-18T13:38:38.264Z,60.02
2022-12-18T13:41:19.937Z,59.27
2022-12-18T13:44:11.020Z,58.94
2022-12-18T13:46:48.038Z,58.89
2022-12-18T13:49:14.620Z,58.13
2022-12-18T13:51:45.401Z,58.62
2022-12-18T13:54:25.396Z,57.73
2022-12-18T13:56:52.489Z,57.42
2022-12-18T13:59:27.271Z,57.36
2022-12-18T14:01:59.846Z,57.00
2022-12-18T14:04:31.745Z,57.76
2022-12-18T14:07:07.955Z,57.66
2022-12-18T14:09:38.887Z,58.51
2022-12-18T14:12:32.855Z,58.67
2022-12-18T14:15:01.214Z,59.22
2022-12-18T14:17:27.936Z,57.61
2022-12-18T14:19:55.350Z,56.59
2022-12-18T14:22:31.131Z,55.31
2022-12-18T14:25:13.316Z,54.97
2022-12-18T14:27:50.619Z,54.60
2022-12-18T14:30:37.595Z,54.71
2022-12-18T14:33:11.003Z,55.00
2022-12-18T14:35:40.861Z,55.80
2022-12-18T14:38:37.515Z,55.35
2022-12-18T14:41:07.531Z,55.83
2022-12-18T14:43:36.331Z,56.79
2022-12-18T14:46:05.758Z,57.30
2022-12-18T14:48:42.753Z,56.93
2022-12-18T14:51:24.088Z,55.36
2022-12-18T14:54:02.477Z,55.98
2022-12-18T14:56:35.072Z,57.62
2022-12-18T14:59:16.984Z,57.55
2022-12-18T15:02:07.685Z,58.03
2022-12-18T15:04:37.419Z,58.91
2022-12-18T15:07:15.746Z,59.04
2022-12-18T15:10:01.275Z,60.09
2022-12-18T15:12:43.106Z,61.00
2022-12-18T15:15:34.955Z,60.69
2022-12-18T15:18:13.515Z,62.68
2022-12-18T15:20:46.143Z,64.19
2022-12-18T15:23:20.677Z,63.74
2022-12-18T15:25:49.414Z,63.55
2022-12-18T15:28:30.140Z,63.72
2022-12-18T15:31:17.027Z,64.04
2022-12-18T15:34:04.064Z,65.08
2022-12-18T15:36:31.580Z,65.46
2022-12-18T15:39:04.755Z,65.23
2022-12-18T15:41:37.315Z,65.42
2022-12-18T15:44:22.738Z,66.56
2022-12-18T15:46:49.735Z,65.92
2022-12-18T15:49:16.418Z,66.86
2022-12-18T15:51:43.353Z,67.66
2022-12-18T15:54:15.032Z,67.46
2022-12-18T15:57:00.291Z,67.40
2022-12-18T15:59:27.586Z,68.34
2022-12-18T16:01:54.388Z,69.33
2022-12-18T16:04:23.137Z,68.04
2022-12-18T16:07:13.743Z,68.32
2022-12-18T16:09:37.659Z,68.57
2022-12-18T16:12:04.896Z,68.94
2022-12-18T16:14:32.602Z,68.76
2022-12-18T16:17:02.276Z,68.72
2022-12-18T16:19:30.170Z,68.11
2022-12-18T16:21:58.612Z,68.30
2022-12-18T16:24:30.823Z,68.89
2022-12-18T16:27:00.330Z,69.31
2022-12-18T16:29:29.312Z,69.50
2022-12-18T16:32:00.973Z,69.13
2022-12-18T16:34:35.816Z,69.60
2022-12-18T16:37:06.521Z,70.23
2022-12-18T16:39:35.265Z,69.71
2022-12-18T16:42:05.621Z,69.73
2022-12-18T16:44:34.521Z,69.11
2022-12-18T16:47:03.025Z,69.25
2022-12-18T16:49:30.922Z,69.69
2022-12-18T16:51:58.155Z,70.47
2022-12-18T16:54:25.310Z,71.13
2022-12-18T16:56:52.301Z,70.77
2022-12-18T16:59:19.812Z,70.27
2022-12-18T17:01:47.322Z,70.34
2022-12-18T17:04:15.179Z,71.71
2022-12-18T17:06:44.595Z,72.15
2022-12-18T17:09:14.820Z,71.82
2022-12-18T17:11:41.992Z,70.75
2022-12-18T17:14:15.303Z,70.24
2022-12-18T17:16:42.646Z,70.13
2022-12-18T17:19:16.656Z,70.75
2022-12-18T17:21:45.904Z,71.07
2022-12-18T17:24:13.519Z,71.71
2022-12-18T17:26:40.472Z,71.43
2022-12-18T17:29:08.282Z,70.92
2022-12-18T17:31:36.148Z,71.40
2022-12-18T17:34:04.162Z,70.65
2022-12-18T17:36:32.503Z,71.13
2022-12-18T17:39:02.224Z,70.78
2022-12-18T17:41:30.066Z,70.27
2022-12-18T17:43:59.802Z,70.17
2022-12-18T17:46:28.191Z,70.07
2022-12-18T17:48:58.968Z,70.24
2022-12-18T17:51:26.409Z,70.27
2022-12-18T17:53:53.212Z,70.19
2022-12-18T17:56:21.755Z,69.92
2022-12-18T17:58:50.424Z,70.61
2022-12-18T18:01:21.091Z,71.81
2022-12-18T18:03:50.355Z,71.51
2022-12-18T18:06:20.522Z,72.54
2022-12-18T18:08:47.339Z,72.05
2022-12-18T18:11:36.021Z,71.74
2022-12-18T18:14:05.545Z,72.19
2022-12-18T18:16:41.437Z,71.74
2022-12-18T18:19:14.437Z,70.63
2022-12-18T18:21:44.741Z,70.92
2022-12-18T18:24:14.835Z,71.00
2022-12-18T18:26:41.960Z,70.91
2022-12-18T18:29:15.472Z,71.50
2022-12-18T18:31:42.519Z,70.25
2022-12-18T18:34:15.571Z,69.56
2022-12-18T18:36:42.475Z,70.79
2022-12-18T18:39:09.087Z,71.15
2022-12-18T18:41:37.546Z,70.86
2022-12-18T18:44:04.963Z,71.39
2022-12-18T18:46:31.705Z,72.24
2022-12-18T18:48:59.003Z,73.01
2022-12-18T18:51:30.023Z,71.52
2022-12-18T18:53:59.991Z,71.11
2022-12-18T18:59:18.390Z,72.17
2022-12-18T19:01:45.370Z,71.37
2022-12-18T19:04:12.420Z,72.18
2022-12-18T19:06:39.276Z,72.44
2022-12-18T19:09:06.644Z,73.30
2022-12-18T19:11:52.500Z,71.88
2022-12-18T19:14:20.261Z,72.05
2022-12-18T19:16:47.036Z,71.91
2022-12-18T19:19:13.880Z,72.27
2022-12-18T19:21:40.995Z,73.35
2022-12-18T19:24:10.113Z,73.67
2022-12-18T19:26:37.629Z,72.93
2022-12-18T19:29:09.168Z,72.18
2022-12-18T19:31:37.392Z,72.31
2022-12-18T19:34:07.925Z,72.15
2022-12-18T19:36:38.148Z,71.51
2022-12-18T19:39:23.949Z,71.70
2022-12-18T19:41:52.659Z,71.66
2022-12-18T19:44:19.489Z,71.12
2022-12-18T19:46:49.516Z,70.47
2022-12-18T19:49:17.587Z,70.75
2022-12-18T19:51:45.668Z,71.49
2022-12-18T19:54:16.953Z,71.36
2022-12-18T19:56:45.589Z,71.93
2022-12-18T19:59:12.895Z,71.69
2022-12-18T20:01:39.925Z,71.22
2022-12-18T20:04:07.058Z,72.21
2022-12-18T20:06:36.694Z,72.98
2022-12-18T20:09:07.333Z,73.21
2022-12-18T20:11:39.650Z,73.06
2022-12-18T20:14:09.082Z,73.94
2022-12-18T20:16:35.932Z,73.67
2022-12-18T20:19:02.907Z,72.41
2022-12-18T20:21:30.222Z,71.92
2022-12-18T20:23:57.019Z,72.26
2022-12-18T20:26:24.820Z,72.63
2022-12-18T20:28:51.981Z,72.81
2022-12-18T20:31:18.622Z,73.44
2022-12-18T20:33:47.695Z,73.78
2022-12-18T20:36:21.150Z,74.35
2022-12-18T20:38:50.887Z,73.19
2022-12-18T20:41:21.075Z,72.82
2022-12-18T20:43:48.438Z,73.11
2022-12-18T20:46:16.998Z,73.94
2022-12-18T20:48:44.882Z,74.13
2022-12-18T20:51:14.387Z,74.67
2022-12-18T20:53:42.067Z,74.47
2022-12-18T20:56:12.859Z,73.92
2022-12-18T20:58:39.573Z,74.35
2022-12-18T21:01:10.038Z,73.88
2022-12-18T21:03:38.269Z,74.22
2022-12-18T21:06:05.216Z,74.23
2022-12-18T21:08:32.371Z,75.15
2022-12-18T21:11:38.777Z,75.14
2022-12-18T21:14:10.634Z,75.23
2022-12-18T21:16:37.918Z,74.78
2022-12-18T21:19:04.719Z,75.45
2022-12-18T21:21:34.762Z,75.75
2022-12-18T21:24:06.074Z,76.80
2022-12-18T21:26:32.868Z,76.85
2022-12-18T21:29:01.784Z,77.08
2022-12-18T21:31:30.894Z,75.83
2022-12-18T21:34:00.903Z,76.30
2022-12-18T21:36:30.506Z,75.59
2022-12-18T21:38:58.547Z,76.62
2022-12-18T21:41:45.555Z,75.69
2022-12-18T21:44:18.115Z,75.98
2022-12-18T21:46:52.800Z,75.55
2022-12-18T21:49:23.142Z,76.77
2022-12-18T21:51:56.015Z,76.79
2022-12-18T21:54:24.255Z,76.53
2022-12-18T21:56:56.507Z,76.23
2022-12-18T21:59:37.382Z,76.08
2022-12-18T22:02:15.940Z,76.51
2022-12-18T22:04:44.158Z,76.45
2022-12-18T22:07:11.560Z,76.23
2022-12-18T22:09:38.752Z,75.86
2022-12-18T22:12:05.931Z,76.39
2022-12-18T22:14:32.742Z,77.04
2022-12-18T22:16:59.568Z,76.57
2022-12-18T22:19:27.027Z,76.83
2022-12-18T22:21:54.118Z,76.50
2022-12-18T22:24:23.570Z,76.76
2022-12-18T22:26:52.958Z,77.20
2022-12-18T22:29:43.174Z,76.58
2022-12-18T22:32:15.692Z,77.03
2022-12-18T22:34:43.497Z,77.57
2022-12-18T22:37:12.352Z,76.82
2022-12-18T22:39:39.218Z,77.42
2022-12-18T22:42:06.308Z,76.87
2022-12-18T22:44:32.915Z,76.78
2022-12-18T22:47:06.315Z,77.30
2022-12-18T22:49:34.812Z,77.71
2022-12-18T22:52:02.440Z,77.69
2022-12-18T22:54:29.186Z,78.20
2022-12-18T22:56:55.811Z,78.10
2022-12-18T22:59:23.243Z,78.42
2022-12-18T23:01:54.221Z,78.01
2022-12-18T23:04:34.266Z,78.12
2022-12-18T23:07:06.620Z,77.60
2022-12-18T23:09:33.617Z,78.69
2022-12-18T23:12:01.150Z,77.81
2022-12-18T23:14:29.028Z,78.52
2022-12-18T23:16:56.422Z,78.09
2022-12-18T23:19:23.812Z,78.08
2022-12-18T23:21:51.472Z,78.05
2022-12-18T23:24:18.272Z,77.71
2022-12-18T23:26:44.978Z,78.41
2022-12-18T23:29:11.708Z,78.41
2022-12-18T23:31:39.827Z,78.40
2022-12-18T23:34:07.349Z,78.40
2022-12-18T23:36:46.055Z,78.22
2022-12-18T23:39:26.194Z,77.94
2022-12-18T23:42:00.021Z,78.51
2022-12-18T23:44:27.402Z,78.40
2022-12-18T23:46:54.502Z,78.64
2022-12-18T23:49:21.423Z,78.53
2022-12-18T23:51:48.518Z,78.20
2022-12-18T23:54:15.362Z,78.50
2022-12-18T23:56:42.316Z,78.31
2022-12-18T23:59:09.166Z,77.70
